KSVC  Grant County Airport

Add Bookmark

Silver City, New Mexico, United States

Status Useage IATA
Operational Public SVC
Latitude Longitude
32° 38' 11" N 108° 9' 22" W
32.636547 -108.156385
Local (DST -6) UTC (GMT -7)
Oct 21, 2014 01:54 Oct 21, 2014 19:54
Sunrise-Sunset Local UTC
Begin Civil Twilight 06:55 12:55
Sunrise 07:20 13:20
Sunset 06:33 00:33
End Civil Twilight 06:58 00:58

Current Weather

METAR Observed VFR
KSVC 211935Z AUTO 14010KT 10SM SCT029 BKN037 18/10 A3013 Tue, Oct 21, 2014 @ 19:35 UTC
(19 Minutes ago)
Visual Flight Rules
Wind Visibility Clouds Conditions
140° at 10 knots (12 mph) 10 statute miles
  • Scattered at 2,900' AGL
  • Broken at 3,700' AGL
  • No significant weather
Temperatures Readings Precipitation
Current Temp 18°C (64°F)
Dewpoint 10°C (50°F)
Humidity 60%
Altimeter 30.13"Hg
Sea Level Pressure 1020mb
Field Elevation 5443.01'
None Recorded

Additional weather within a 50nm radius of KSVC

Map ICAO Location
KDMN 31.5nm S (135°)
KLSB 32.6nm S (236°)

24 Hour Weather History

Loading
-

24 Hour Weather Graphs

Loading
-

CheckWX.com is intended as a tool to help pilots better visualize weather data. It is not intended as a substitute for an official weather briefing obtained from a Flight Service Station. CheckWX.com does not meet the FAA requirements for an official pre-flight weather briefing. Therefore, it's important that pilots still call and obtain an official FSS pre-flight weather briefing.